createdAt,value
2022-10-22T00:04:04.241Z,88.3
2022-10-22T00:09:04.418Z,88.6
2022-10-22T00:14:04.363Z,89.7
2022-10-22T00:19:14.624Z,90.1
2022-10-22T00:24:14.686Z,89.8
2022-10-22T00:29:14.821Z,89
2022-10-22T00:35:04.294Z,89.8
2022-10-22T00:40:04.391Z,89.7
2022-10-22T00:45:14.584Z,89.5
2022-10-22T00:50:14.620Z,89.8
2022-10-22T00:55:14.667Z,91.3
2022-10-22T01:00:14.842Z,90.6
2022-10-22T01:06:04.293Z,92.1
2022-10-22T01:11:04.310Z,91.2
2022-10-22T01:16:14.617Z,89.4
2022-10-22T01:21:14.830Z,90.9
2022-10-22T01:27:04.258Z,89
2022-10-22T01:32:04.276Z,89.6
2022-10-22T01:37:04.804Z,91.6
2022-10-22T01:42:14.868Z,93.1
2022-10-22T01:48:04.336Z,93.1
2022-10-22T01:53:14.878Z,93.9
2022-10-22T01:59:04.316Z,92
2022-10-22T02:04:04.381Z,90.8
2022-10-22T02:09:14.918Z,89.8
2022-10-22T02:15:04.314Z,90.7
2022-10-22T02:20:04.332Z,91.8
2022-10-22T02:25:04.615Z,90.4
2022-10-22T02:35:14.813Z,90.8
2022-10-22T02:41:04.359Z,90.9
2022-10-22T02:46:14.807Z,89.2
2022-10-22T02:52:04.351Z,90.8
2022-10-22T02:58:04.291Z,91.5
2022-10-22T03:03:04.362Z,92.8
2022-10-22T03:08:25.080Z,93.1
2022-10-22T03:14:04.354Z,92.1
2022-10-22T03:19:04.391Z,92.9
2022-10-22T03:24:14.825Z,94.1
2022-10-22T03:29:14.868Z,92.4
2022-10-22T03:34:14.838Z,92.7
2022-10-22T03:40:04.391Z,91.8
2022-10-22T03:45:04.559Z,92.7
2022-10-22T03:50:14.823Z,92.6
2022-10-22T03:55:14.881Z,90.8
2022-10-22T04:01:04.528Z,92.3
2022-10-22T04:06:14.808Z,92.6
2022-10-22T04:12:04.363Z,93.6
2022-10-22T04:17:14.885Z,89
2022-10-22T04:23:04.356Z,91.2
2022-10-22T04:28:04.457Z,92.4
2022-10-22T04:33:14.851Z,91.7
2022-10-22T04:39:04.295Z,91.1
2022-10-22T04:44:04.275Z,91.2
2022-10-22T04:49:14.833Z,92.1
2022-10-22T04:54:15.154Z,93.3
2022-10-22T04:59:14.842Z,93.9
2022-10-22T05:05:04.342Z,94.5
2022-10-22T05:10:14.779Z,93.8
2022-10-22T05:15:14.841Z,94.2
2022-10-22T05:21:04.421Z,94.2
2022-10-22T05:26:04.398Z,94.3
2022-10-22T05:31:14.661Z,93.2
2022-10-22T05:37:04.311Z,93.5
2022-10-22T05:42:04.305Z,91.7
2022-10-22T05:47:14.634Z,93.8
2022-10-22T05:53:04.337Z,94.1
2022-10-22T05:58:04.315Z,93.5
2022-10-22T06:03:04.338Z,94.7
2022-10-22T06:08:18.333Z,94.2
2022-10-22T06:14:04.393Z,93.9
2022-10-22T06:19:14.638Z,94.6
2022-10-22T06:25:04.403Z,94.3
2022-10-22T06:30:14.587Z,94.6
2022-10-22T06:35:14.599Z,94.9
2022-10-22T06:40:14.760Z,94.3
2022-10-22T06:45:14.779Z,93.2
2022-10-22T06:51:04.316Z,93.7
2022-10-22T06:56:04.342Z,92.9
2022-10-22T07:01:04.425Z,92.2
2022-10-22T07:06:04.626Z,91.7
2022-10-22T07:11:14.891Z,92.4
2022-10-22T07:17:04.565Z,90.3
2022-10-22T07:22:14.858Z,91.6
2022-10-22T07:27:14.974Z,91.8
2022-10-22T07:33:04.384Z,91.7
2022-10-22T07:38:04.558Z,91.3
2022-10-22T07:43:04.630Z,91.5
2022-10-22T07:48:14.788Z,91.5
2022-10-22T07:53:14.973Z,91.7
2022-10-22T07:58:14.847Z,90.6
2022-10-22T08:03:14.888Z,90.2
2022-10-22T08:09:04.812Z,92
2022-10-22T08:14:04.607Z,91
2022-10-22T08:19:14.857Z,90.6
2022-10-22T08:25:04.565Z,89.9
2022-10-22T08:30:14.656Z,88.5
2022-10-22T08:35:16.968Z,87.1
2022-10-22T08:41:04.663Z,87.1
2022-10-22T08:46:04.697Z,85.1
2022-10-22T08:51:05.909Z,84.1
2022-10-22T08:56:14.619Z,83.6
2022-10-22T09:01:14.884Z,82
2022-10-22T09:07:14.819Z,81.2
2022-10-22T09:13:05.075Z,82
2022-10-22T09:18:14.897Z,80.2
2022-10-22T09:24:04.355Z,80.1
2022-10-22T09:29:04.551Z,83.2
2022-10-22T09:34:04.593Z,80.7
2022-10-22T09:45:04.570Z,79.5
2022-10-22T09:50:14.804Z,77.5
2022-10-22T09:55:14.849Z,78.5
2022-10-22T10:00:14.844Z,77.3
2022-10-22T10:05:14.864Z,77.2
2022-10-22T10:11:04.596Z,76.1
2022-10-22T10:16:04.568Z,74.7
2022-10-22T10:27:04.340Z,72.1
2022-10-22T10:32:04.351Z,73
2022-10-22T10:37:04.360Z,72.7
2022-10-22T10:42:04.563Z,74.6
2022-10-22T10:47:05.245Z,73
2022-10-22T10:52:18.818Z,70.7
2022-10-22T10:58:04.599Z,69.5
2022-10-22T11:03:14.696Z,70.9
2022-10-22T11:08:14.870Z,69.2
2022-10-22T11:14:04.337Z,69.2
2022-10-22T11:19:04.370Z,69.2
2022-10-22T11:24:04.558Z,69
2022-10-22T11:29:14.899Z,67.9
2022-10-22T11:35:04.750Z,68.5
2022-10-22T11:40:14.915Z,68.7
2022-10-22T11:46:04.370Z,67.5
2022-10-22T11:51:14.710Z,68.9
2022-10-22T11:56:14.669Z,67.9
2022-10-22T12:01:14.673Z,73
2022-10-22T12:06:14.696Z,69.8
2022-10-22T12:12:04.495Z,69.9
2022-10-22T12:17:14.670Z,68.9
2022-10-22T12:22:14.719Z,68.8
2022-10-22T12:28:04.602Z,71.2
2022-10-22T12:33:14.668Z,70.2
2022-10-22T12:38:14.706Z,67.9
2022-10-22T12:43:14.766Z,68.3
2022-10-22T12:48:14.769Z,69.1
2022-10-22T12:54:04.593Z,66.4
2022-10-22T12:59:04.642Z,68.2
2022-10-22T13:04:14.891Z,69.1
2022-10-22T13:09:15.058Z,67.3
2022-10-22T13:15:04.662Z,68.1
2022-10-22T13:20:14.905Z,69.3
2022-10-22T13:26:04.608Z,70.1
2022-10-22T13:31:04.633Z,70.3
2022-10-22T13:36:04.631Z,66.8
2022-10-22T13:41:04.611Z,68.7
2022-10-22T13:46:14.802Z,66.9
2022-10-22T13:51:14.913Z,66.9
2022-10-22T13:57:04.632Z,66.8
2022-10-22T14:02:14.936Z,65.5
2022-10-22T14:07:14.954Z,65
2022-10-22T14:13:04.467Z,66.5
2022-10-22T14:18:04.652Z,66.7
2022-10-22T14:23:04.677Z,65.4
2022-10-22T14:28:14.915Z,65.6
2022-10-22T14:34:04.427Z,65.4
2022-10-22T14:39:04.700Z,64.4
2022-10-22T14:44:14.951Z,64.6
2022-10-22T14:50:04.410Z,66.1
2022-10-22T14:55:04.467Z,64.4
2022-10-22T15:00:14.716Z,64.6
2022-10-22T15:05:14.927Z,64.9
2022-10-22T15:10:14.917Z,65.2
2022-10-22T15:15:16.499Z,66.4
2022-10-22T15:21:04.664Z,65.3
2022-10-22T15:26:14.915Z,67.3
2022-10-22T15:31:14.956Z,69.3
2022-10-22T15:37:04.632Z,70.3
2022-10-22T15:42:14.948Z,69.9
2022-10-22T15:47:14.947Z,70.8
2022-10-22T15:53:04.662Z,72.8
2022-10-22T15:58:04.704Z,73.2
2022-10-22T16:03:14.925Z,72.1
2022-10-22T16:08:14.977Z,75.1
2022-10-22T16:13:14.964Z,75.2
2022-10-22T16:19:04.645Z,77.2
2022-10-22T16:24:06.352Z,78.4
2022-10-22T16:29:04.653Z,79.3
2022-10-22T16:34:14.699Z,79.8
2022-10-22T16:39:14.782Z,79.7
2022-10-22T16:44:14.885Z,82.3
2022-10-22T16:49:14.951Z,82.3
2022-10-22T16:54:14.997Z,84.7
2022-10-22T17:00:04.660Z,86.8
2022-10-22T17:05:04.702Z,87.6
2022-10-22T17:10:15.010Z,86.5
2022-10-22T17:15:14.990Z,86.8
2022-10-22T17:21:04.664Z,85.8
2022-10-22T17:26:14.938Z,87.1
2022-10-22T17:31:14.940Z,87.8
2022-10-22T17:36:14.977Z,85.2
2022-10-22T17:42:04.833Z,85.8
2022-10-22T17:47:14.982Z,87.2
2022-10-22T17:52:14.982Z,88
2022-10-22T17:58:04.489Z,89.1
2022-10-22T18:03:14.841Z,88.4
2022-10-22T18:09:04.532Z,88.5
2022-10-22T18:14:14.744Z,89.8
2022-10-22T18:19:14.860Z,88.9
2022-10-22T18:25:04.484Z,88.7
2022-10-22T18:30:04.526Z,88.7
2022-10-22T18:35:14.844Z,88.8
2022-10-22T18:41:04.475Z,89
2022-10-22T18:46:04.502Z,88.9
2022-10-22T18:51:04.632Z,89.1
2022-10-22T18:56:14.758Z,89
2022-10-22T19:01:14.809Z,88.7
2022-10-22T19:06:14.831Z,88.5
2022-10-22T19:12:04.684Z,88.9
2022-10-22T19:17:14.775Z,89.4
2022-10-22T19:22:15.004Z,89.2
2022-10-22T19:28:04.470Z,88.7
2022-10-22T19:33:04.469Z,89.2
2022-10-22T19:38:04.548Z,89.1
2022-10-22T19:43:04.664Z,89.1
2022-10-22T19:48:04.665Z,87.9
2022-10-22T19:53:14.834Z,88.9
2022-10-22T19:58:16.115Z,89.2
2022-10-22T20:04:04.659Z,88.3
2022-10-22T20:09:14.861Z,88.5
2022-10-22T20:14:14.975Z,86.9
2022-10-22T20:19:14.971Z,88.2
2022-10-22T20:25:04.728Z,88.3
2022-10-22T20:36:04.649Z,88.2
2022-10-22T20:41:15.025Z,89.1
2022-10-22T20:47:05.069Z,88.9
2022-10-22T20:52:15.028Z,88.6
2022-10-22T20:58:04.707Z,88.6
2022-10-22T21:03:14.800Z,88.1
2022-10-22T21:08:14.881Z,87.8
2022-10-22T21:13:15.080Z,88
2022-10-22T21:19:04.505Z,87.5
2022-10-22T21:24:04.499Z,87.4
2022-10-22T21:29:04.706Z,87.9
2022-10-22T21:34:14.984Z,87
2022-10-22T21:39:14.986Z,88
2022-10-22T21:45:08.017Z,87.4
2022-10-22T21:50:04.701Z,87.4
2022-10-22T21:55:14.981Z,89.1
2022-10-22T22:00:15.025Z,87.6
2022-10-22T22:06:04.696Z,88.3
2022-10-22T22:11:04.690Z,88.6
2022-10-22T22:16:14.814Z,87.5
2022-10-22T22:21:14.976Z,88.4
2022-10-22T22:27:04.464Z,88.3
2022-10-22T22:32:04.545Z,86.8
2022-10-22T22:37:04.694Z,88.2
2022-10-22T22:42:14.974Z,88.7
2022-10-22T22:47:15.007Z,89.6
2022-10-22T22:52:15.039Z,89.1
2022-10-22T22:57:15.023Z,88.5
2022-10-22T23:03:04.714Z,88.4
2022-10-22T23:08:14.989Z,89.3
2022-10-22T23:13:14.995Z,89.7
2022-10-22T23:19:04.653Z,90.3
2022-10-22T23:24:04.480Z,89.3
2022-10-22T23:29:04.680Z,89.1
2022-10-22T23:34:04.787Z,88.7
2022-10-22T23:39:15.010Z,88.2
2022-10-22T23:45:04.712Z,89.1
2022-10-22T23:50:14.949Z,88.9
2022-10-22T23:56:04.568Z,89.8
